Time;durP1;ratioP1;P1;durP2;ratioP2;P2;SDS_P1;SDS_P2;PMS_P1;PMS_P2;Temp;Humidity;BMP_temperature;BMP_pressure;BME280_temperature;BME280_humidity;BME280_pressure;Samples;Min_cycle;Max_cycle;Signal;HPM_P1;HPM_P2
2022/09/15 00:00:53;;;;;;;5.97;3.58;;;17.80;99.90;;;;;;5110711;28;20114;-85
2022/09/15 00:03:20;;;;;;;8.55;3.08;;;17.70;99.90;;;;;;5109853;28;20388;-85
2022/09/15 00:05:46;;;;;;;5.20;2.33;;;17.70;99.90;;;;;;5101811;28;20024;-86
2022/09/15 00:08:12;;;;;;;6.68;3.25;;;17.70;99.90;;;;;;5090015;28;20059;-85
2022/09/15 00:11:26;;;;;;;9.80;3.60;;;17.70;99.90;;;;;;5109141;28;20664;-85
2022/09/15 00:13:54;;;;;;;4.95;2.67;;;17.70;99.90;;;;;;5104844;28;20032;-84
2022/09/15 00:16:22;;;;;;;8.32;3.42;;;17.60;99.90;;;;;;5109924;28;20020;-85
2022/09/15 00:18:47;;;;;;;5.68;3.22;;;17.60;99.90;;;;;;5107380;28;20019;-83
2022/09/15 00:21:23;;;;;;;7.90;3.42;;;17.60;99.90;;;;;;5106990;28;20538;-83
2022/09/15 00:23:49;;;;;;;7.83;4.20;;;17.60;99.90;;;;;;5108318;28;20028;-83
2022/09/15 00:26:19;;;;;;;11.27;4.57;;;17.60;99.90;;;;;;5110335;28;20019;-84
2022/09/15 00:28:45;;;;;;;6.90;4.60;;;17.60;99.90;;;;;;5107481;28;20031;-82
2022/09/15 00:31:16;;;;;;;6.57;5.47;;;17.60;99.90;;;;;;5107499;28;20486;-85
2022/09/15 00:33:46;;;;;;;8.95;5.95;;;17.50;99.90;;;;;;5108131;28;20100;-83
2022/09/15 00:36:11;;;;;;;12.52;6.40;;;17.40;99.90;;;;;;5108587;28;20024;-86
2022/09/15 00:38:37;;;;;;;6.00;4.93;;;17.40;99.90;;;;;;5110035;28;20034;-86
2022/09/15 00:41:04;;;;;;;8.07;5.28;;;17.40;99.90;;;;;;5110475;28;20115;-84
2022/09/15 00:43:42;;;;;;;10.40;4.55;;;17.40;99.90;;;;;;5110221;28;20495;-85
2022/09/15 00:46:08;;;;;;;8.68;4.40;;;17.40;99.90;;;;;;5106051;28;20031;-86
2022/09/15 00:48:36;;;;;;;8.05;3.83;;;17.30;99.90;;;;;;5090058;28;20127;-86
2022/09/15 00:51:03;;;;;;;7.43;4.05;;;17.30;99.90;;;;;;5095543;28;20047;-86
2022/09/15 00:53:30;;;;;;;8.57;4.53;;;17.30;99.90;;;;;;5109663;28;20020;-87
2022/09/15 00:55:58;;;;;;;7.85;4.72;;;17.30;99.90;;;;;;5110061;28;20035;-88
2022/09/15 00:58:33;;;;;;;5.95;4.45;;;17.40;99.90;;;;;;5109311;28;20031;-86
2022/09/15 01:01:01;;;;;;;9.05;4.43;;;17.40;99.90;;;;;;5087165;28;20063;-83
2022/09/15 01:03:32;;;;;;;5.88;3.50;;;17.30;99.90;;;;;;5085943;28;20412;-84
2022/09/15 01:06:13;;;;;;;7.60;4.95;;;17.30;99.90;;;;;;5086030;28;20061;-83
2022/09/15 01:08:40;;;;;;;5.07;3.90;;;17.40;99.90;;;;;;5106465;28;20568;-84
2022/09/15 01:11:06;;;;;;;10.25;4.70;;;17.30;99.90;;;;;;5106707;28;20020;-82
2022/09/15 01:13:32;;;;;;;9.82;4.60;;;17.30;99.90;;;;;;5107556;28;20030;-84
2022/09/15 01:16:28;;;;;;;5.72;3.80;;;17.30;99.90;;;;;;5092623;28;20510;-82
2022/09/15 01:19:00;;;;;;;6.18;4.55;;;17.30;99.90;;;;;;5087484;28;20044;-84
2022/09/15 01:21:43;;;;;;;8.32;6.13;;;17.30;99.90;;;;;;5108283;28;20055;-85
2022/09/15 01:24:33;;;;;;;10.52;6.70;;;17.30;99.90;;;;;;5110003;28;20035;-86
2022/09/15 01:27:11;;;;;;;11.20;6.78;;;17.30;99.90;;;;;;5108105;28;20126;-86
2022/09/15 01:29:45;;;;;;;14.95;8.25;;;17.30;99.90;;;;;;5099396;28;20496;-86
2022/09/15 01:35:09;;;;;;;16.58;7.28;;;17.40;99.90;;;;;;5096029;28;20058;-85
2022/09/15 01:37:39;;;;;;;13.55;6.18;;;17.40;99.90;;;;;;5107612;28;20020;-86
2022/09/15 01:40:07;;;;;;;7.93;5.75;;;17.40;99.90;;;;;;5120979;27;20028;-85
2022/09/15 01:42:34;;;;;;;7.47;5.40;;;17.40;99.90;;;;;;5105920;28;20027;-86
2022/09/15 01:45:08;;;;;;;9.55;6.07;;;17.40;99.90;;;;;;5109147;28;20058;-85
2022/09/15 01:47:35;;;;;;;7.15;5.05;;;17.40;99.90;;;;;;5108618;28;20063;-84
2022/09/15 01:50:12;;;;;;;7.85;4.38;;;17.40;99.90;;;;;;5109540;28;20032;-85
2022/09/15 01:52:43;;;;;;;8.90;4.55;;;17.40;99.90;;;;;;5103905;28;20114;-86
2022/09/15 01:55:19;;;;;;;6.10;3.83;;;17.40;99.90;;;;;;5087936;28;20031;-86
2022/09/15 01:57:45;;;;;;;8.00;4.43;;;17.30;99.90;;;;;;5086052;28;20055;-86
2022/09/15 02:00:11;;;;;;;6.72;3.90;;;17.30;99.90;;;;;;5090119;28;20055;-86
2022/09/15 02:02:43;;;;;;;6.07;3.83;;;17.20;99.90;;;;;;5095837;28;20027;-87
2022/09/15 02:05:29;;;;;;;8.27;4.75;;;17.20;99.90;;;;;;5095669;28;20032;-86
2022/09/15 02:07:54;;;;;;;6.30;4.20;;;17.20;99.90;;;;;;5095818;28;20063;-87
2022/09/15 02:10:29;;;;;;;18.10;5.10;;;17.20;99.90;;;;;;5095323;28;20062;-86
2022/09/15 02:13:00;;;;;;;6.00;4.40;;;17.20;99.90;;;;;;5097817;28;20024;-85
2022/09/15 02:15:32;;;;;;;8.25;4.75;;;17.20;99.90;;;;;;5099779;28;20039;-86
2022/09/15 02:18:02;;;;;;;11.73;4.20;;;17.20;99.90;;;;;;5097362;28;20028;-86
2022/09/15 02:20:41;;;;;;;12.40;4.65;;;17.20;99.90;;;;;;5115686;28;20024;-85
2022/09/15 02:23:29;;;;;;;6.57;3.92;;;17.20;99.90;;;;;;5115759;28;20543;-87
2022/09/15 02:26:03;;;;;;;9.32;5.35;;;17.20;99.90;;;;;;5115775;28;20072;-86
2022/09/15 02:28:32;;;;;;;8.80;5.03;;;17.10;99.90;;;;;;5116711;27;20081;-87
2022/09/15 02:30:58;;;;;;;6.22;4.55;;;17.10;99.90;;;;;;5116022;28;20035;-86
2022/09/15 02:33:29;;;;;;;7.32;4.93;;;17.00;99.90;;;;;;5115873;28;20035;-87
2022/09/15 02:35:55;;;;;;;11.38;5.47;;;17.00;99.90;;;;;;5115930;28;20054;-86
2022/09/15 02:38:20;;;;;;;7.57;4.90;;;17.00;99.90;;;;;;5115776;28;20055;-86
2022/09/15 02:40:47;;;;;;;9.73;5.75;;;16.90;99.90;;;;;;5116711;27;20035;-86
2022/09/15 02:43:16;;;;;;;7.60;4.85;;;16.90;99.90;;;;;;5114762;28;20027;-86
2022/09/15 02:45:42;;;;;;;7.55;4.88;;;16.80;99.90;;;;;;5115506;28;20029;-87
2022/09/15 02:48:08;;;;;;;7.18;5.78;;;16.80;99.90;;;;;;5115962;28;20080;-86
2022/09/15 02:50:35;;;;;;;8.20;5.97;;;16.70;99.90;;;;;;5113312;28;20365;-86
2022/09/15 02:53:01;;;;;;;10.90;5.07;;;16.70;99.90;;;;;;5095444;28;20023;-86
2022/09/15 02:55:27;;;;;;;10.98;5.10;;;16.70;99.90;;;;;;5095225;28;20036;-86
2022/09/15 02:57:54;;;;;;;5.82;5.18;;;16.70;99.90;;;;;;5095673;28;20445;-86
2022/09/15 03:00:20;;;;;;;8.75;5.03;;;16.70;99.90;;;;;;5095052;28;20047;-86
2022/09/15 03:02:52;;;;;;;8.90;6.50;;;16.70;99.90;;;;;;5095757;28;20020;-86
2022/09/15 03:05:20;;;;;;;11.02;5.30;;;16.70;99.90;;;;;;5096798;28;20020;-86
2022/09/15 03:07:46;;;;;;;6.45;5.35;;;16.70;99.90;;;;;;5094809;28;20391;-87
2022/09/15 03:10:12;;;;;;;5.85;5.25;;;16.60;99.90;;;;;;5095467;28;20032;-87
2022/09/15 03:12:44;;;;;;;15.02;5.57;;;16.60;99.90;;;;;;5092236;28;20020;-85
2022/09/15 03:15:12;;;;;;;8.23;5.65;;;16.60;99.90;;;;;;5091555;28;20031;-86
2022/09/15 03:17:42;;;;;;;11.18;5.30;;;16.60;99.90;;;;;;5092244;28;20556;-86
2022/09/15 03:20:10;;;;;;;8.82;6.00;;;16.70;99.90;;;;;;5110167;28;20031;-86
2022/09/15 03:22:37;;;;;;;7.72;5.65;;;16.70;99.90;;;;;;5112313;28;20122;-87
2022/09/15 03:25:04;;;;;;;9.00;5.78;;;16.70;99.90;;;;;;5112344;28;20023;-86
2022/09/15 03:27:30;;;;;;;6.38;4.22;;;16.80;99.90;;;;;;5112197;28;20058;-87
2022/09/15 03:29:56;;;;;;;9.25;5.40;;;16.80;99.90;;;;;;5112420;28;20062;-85
2022/09/15 03:32:21;;;;;;;6.95;4.50;;;16.90;99.90;;;;;;5113246;28;20062;-86
2022/09/15 03:34:47;;;;;;;10.10;5.05;;;17.00;99.90;;;;;;5110964;28;20072;-87
2022/09/15 03:37:13;;;;;;;6.70;4.60;;;17.00;99.90;;;;;;5109646;28;20024;-86
2022/09/15 03:39:38;;;;;;;5.88;4.57;;;17.00;99.90;;;;;;5110562;28;20480;-86
2022/09/15 03:42:04;;;;;;;5.95;4.93;;;17.00;99.90;;;;;;5111894;28;20035;-86
2022/09/15 03:44:30;;;;;;;7.90;5.00;;;17.00;99.90;;;;;;5111273;28;20026;-86
2022/09/15 03:46:56;;;;;;;9.15;5.22;;;17.10;99.90;;;;;;5111679;28;20073;-86
2022/09/15 03:49:23;;;;;;;6.80;5.55;;;17.10;99.90;;;;;;5108769;28;20263;-86
2022/09/15 03:51:49;;;;;;;7.93;5.53;;;17.10;99.90;;;;;;5108968;28;20076;-87
2022/09/15 03:54:15;;;;;;;7.53;5.65;;;17.10;99.90;;;;;;5112316;28;20019;-87
2022/09/15 03:56:41;;;;;;;8.07;5.60;;;17.10;99.90;;;;;;5112642;28;20043;-85
2022/09/15 03:59:07;;;;;;;7.50;5.22;;;17.10;99.90;;;;;;5111151;28;20564;-86
2022/09/15 04:01:33;;;;;;;6.00;4.75;;;17.20;99.90;;;;;;5111473;28;20034;-86
2022/09/15 04:03:59;;;;;;;7.72;5.00;;;17.10;99.90;;;;;;5098201;27;20024;-86
2022/09/15 04:06:25;;;;;;;6.68;4.65;;;17.20;99.90;;;;;;5091415;28;20024;-86
2022/09/15 04:08:52;;;;;;;7.78;5.65;;;17.20;99.90;;;;;;5090940;28;20042;-86
2022/09/15 04:11:20;;;;;;;7.05;5.40;;;17.20;99.90;;;;;;5091204;28;20101;-87
2022/09/15 04:13:46;;;;;;;5.93;4.28;;;17.20;99.90;;;;;;5092272;28;20035;-86
2022/09/15 04:16:18;;;;;;;6.13;5.45;;;17.20;99.90;;;;;;5091305;28;20412;-86
2022/09/15 04:18:44;;;;;;;8.30;5.95;;;17.20;99.90;;;;;;5100788;28;20020;-86
2022/09/15 04:21:17;;;;;;;15.15;7.68;;;17.20;99.90;;;;;;5110605;28;20055;-86
2022/09/15 04:23:46;;;;;;;7.57;6.68;;;17.20;99.90;;;;;;5111057;28;20030;-87
2022/09/15 04:26:30;;;;;;;11.10;7.10;;;17.20;99.90;;;;;;5111548;28;20552;-87
2022/09/15 04:28:56;;;;;;;7.82;6.35;;;17.20;99.90;;;;;;5115827;28;20039;-86
2022/09/15 04:31:22;;;;;;;7.25;5.82;;;17.10;99.90;;;;;;5117624;28;20028;-88
2022/09/15 04:33:50;;;;;;;9.25;6.45;;;17.10;99.90;;;;;;5114883;28;20020;-85
2022/09/15 04:36:19;;;;;;;8.82;6.40;;;17.10;99.90;;;;;;5111473;28;20222;-87
2022/09/15 04:38:46;;;;;;;7.10;5.25;;;17.10;99.90;;;;;;5111078;28;20023;-87
2022/09/15 04:41:13;;;;;;;6.88;5.35;;;17.10;99.90;;;;;;5110526;28;20034;-87
2022/09/15 04:43:39;;;;;;;11.77;6.15;;;17.10;99.90;;;;;;5110378;28;20411;-87
2022/09/15 04:46:06;;;;;;;6.72;5.40;;;17.10;99.90;;;;;;5110245;28;20047;-85
2022/09/15 04:48:32;;;;;;;8.98;6.70;;;17.20;99.90;;;;;;5111575;28;20084;-87
2022/09/15 04:51:06;;;;;;;9.25;6.40;;;17.20;99.90;;;;;;5104459;28;20509;-87
2022/09/15 04:53:34;;;;;;;10.07;6.70;;;17.20;99.90;;;;;;5091753;28;20218;-87
2022/09/15 04:56:09;;;;;;;7.50;5.68;;;17.20;99.90;;;;;;5089304;28;20051;-87
2022/09/15 04:58:40;;;;;;;9.98;5.72;;;17.30;99.90;;;;;;5092210;28;20442;-87
2022/09/15 05:01:14;;;;;;;9.00;5.45;;;17.30;99.90;;;;;;5109787;28;20023;-86
2022/09/15 05:03:40;;;;;;;8.93;5.75;;;17.40;99.90;;;;;;5110365;28;20034;-87
2022/09/15 05:06:08;;;;;;;9.30;5.68;;;17.40;99.90;;;;;;5110008;28;20122;-87
2022/09/15 05:08:34;;;;;;;11.70;6.50;;;17.40;99.90;;;;;;5091519;28;20523;-88
2022/09/15 05:11:08;;;;;;;6.43;4.88;;;17.50;99.90;;;;;;5088677;28;20020;-87
2022/09/15 05:13:34;;;;;;;10.43;5.22;;;17.50;99.90;;;;;;5089049;28;20122;-87
2022/09/15 05:16:10;;;;;;;8.60;5.78;;;17.60;99.90;;;;;;5103913;28;20476;-87
2022/09/15 05:18:36;;;;;;;7.25;4.50;;;17.70;99.90;;;;;;5110419;28;20141;-87
2022/09/15 05:21:04;;;;;;;9.77;5.65;;;17.80;99.90;;;;;;5110107;28;20126;-89
2022/09/15 05:23:30;;;;;;;6.97;4.72;;;17.90;99.90;;;;;;5110176;28;20035;-87
2022/09/15 05:25:57;;;;;;;14.82;4.47;;;18.00;99.90;;;;;;5110233;28;20020;-87
2022/09/15 05:28:23;;;;;;;8.50;4.35;;;18.20;99.90;;;;;;5110581;28;20081;-88
2022/09/15 05:30:53;;;;;;;9.73;4.25;;;18.40;99.90;;;;;;5110278;28;20070;-85
2022/09/15 05:33:20;;;;;;;4.25;3.50;;;18.60;99.90;;;;;;5108805;28;20016;-83
2022/09/15 05:35:56;;;;;;;6.55;3.60;;;18.70;99.90;;;;;;5108905;28;20027;-85
2022/09/15 05:38:23;;;;;;;7.38;3.42;;;18.90;99.90;;;;;;5110422;28;20116;-84
2022/09/15 05:40:49;;;;;;;4.95;3.53;;;19.00;99.90;;;;;;5109740;28;20030;-85
2022/09/15 05:43:15;;;;;;;6.00;4.10;;;19.00;99.90;;;;;;5102059;28;20024;-85
2022/09/15 05:45:41;;;;;;;6.47;3.67;;;19.00;99.90;;;;;;5090527;28;20031;-85
2022/09/15 05:48:08;;;;;;;4.40;3.50;;;19.00;99.90;;;;;;5106531;28;20060;-84
2022/09/15 05:50:34;;;;;;;5.40;3.13;;;19.00;99.90;;;;;;5091456;28;20205;-85
2022/09/15 05:52:59;;;;;;;4.18;2.47;;;19.20;99.90;;;;;;5109746;28;20019;-85
2022/09/15 05:55:25;;;;;;;5.85;2.97;;;19.30;99.90;;;;;;5110006;28;20077;-85
2022/09/15 05:57:52;;;;;;;5.82;2.63;;;19.50;99.90;;;;;;5109468;28;20397;-85
2022/09/15 06:00:18;;;;;;;5.40;2.70;;;19.60;99.90;;;;;;5092833;28;20025;-85
2022/09/15 06:02:43;;;;;;;8.98;2.95;;;19.70;99.90;;;;;;5089265;28;20028;-86
2022/09/15 06:05:09;;;;;;;5.65;2.85;;;19.70;99.90;;;;;;5089762;28;20103;-85
2022/09/15 06:07:35;;;;;;;8.07;2.80;;;19.70;99.90;;;;;;5099752;28;20027;-86
2022/09/15 06:10:01;;;;;;;9.98;2.88;;;19.70;99.90;;;;;;5111289;28;20027;-85
2022/09/15 06:12:27;;;;;;;7.00;2.78;;;19.70;99.90;;;;;;5109420;28;20027;-85
2022/09/15 06:14:52;;;;;;;5.03;2.47;;;19.70;99.90;;;;;;5111078;28;20360;-85
2022/09/15 06:17:19;;;;;;;5.20;2.15;;;19.70;99.90;;;;;;5111161;28;20100;-85
2022/09/15 06:19:45;;;;;;;3.55;2.30;;;19.70;99.90;;;;;;5088998;28;20036;-85
2022/09/15 06:22:11;;;;;;;4.82;2.25;;;19.70;99.90;;;;;;5089442;28;20028;-85
2022/09/15 06:24:36;;;;;;;4.13;2.33;;;19.70;99.90;;;;;;5089161;28;20020;-86
2022/09/15 06:27:02;;;;;;;7.53;2.28;;;19.80;99.90;;;;;;5088605;28;20032;-86
2022/09/15 06:29:28;;;;;;;5.38;2.17;;;19.80;99.90;;;;;;5088866;28;20028;-84
2022/09/15 06:31:55;;;;;;;6.50;1.92;;;19.90;99.90;;;;;;5089174;28;20038;-86
2022/09/15 06:34:21;;;;;;;4.28;2.13;;;20.10;99.90;;;;;;5087750;28;20032;-85
2022/09/15 06:36:47;;;;;;;2.72;1.85;;;20.20;99.90;;;;;;5107812;28;20105;-85
2022/09/15 06:39:12;;;;;;;4.82;1.80;;;20.30;99.90;;;;;;5108786;28;20065;-85
2022/09/15 06:41:38;;;;;;;4.57;1.67;;;20.40;99.90;;;;;;5109503;28;20027;-84
2022/09/15 06:44:04;;;;;;;7.90;1.70;;;20.40;99.90;;;;;;5094074;28;20384;-86
2022/09/15 06:46:29;;;;;;;3.10;1.30;;;20.40;99.90;;;;;;5089218;28;20042;-86
2022/09/15 06:48:55;;;;;;;3.47;1.45;;;20.50;99.90;;;;;;5091638;28;20032;-85
2022/09/15 06:51:23;;;;;;;3.42;1.38;;;20.50;99.90;;;;;;5090735;28;20028;-85
2022/09/15 06:53:49;;;;;;;2.53;1.25;;;20.50;99.90;;;;;;5092476;28;20058;-84
2022/09/15 06:56:17;;;;;;;8.60;1.48;;;20.50;99.90;;;;;;5092273;28;20071;-85
2022/09/15 06:58:44;;;;;;;5.80;1.35;;;20.50;99.90;;;;;;5092890;28;20488;-86
2022/09/15 07:01:13;;;;;;;3.22;1.20;;;20.60;99.90;;;;;;5092489;28;20031;-84
2022/09/15 07:03:42;;;;;;;5.68;1.80;;;20.60;99.90;;;;;;5092653;28;20031;-85
2022/09/15 07:06:10;;;;;;;5.15;1.40;;;20.60;99.90;;;;;;5092645;28;20032;-85
2022/09/15 07:08:37;;;;;;;9.02;1.55;;;20.60;99.90;;;;;;5093140;28;20020;-86
2022/09/15 07:11:03;;;;;;;3.83;1.52;;;20.80;99.90;;;;;;5092535;28;20043;-85
2022/09/15 07:13:29;;;;;;;6.57;1.52;;;20.90;99.90;;;;;;5092438;28;20024;-85
2022/09/15 07:15:57;;;;;;;4.72;1.40;;;20.90;99.90;;;;;;5091976;28;20036;-85
2022/09/15 07:18:23;;;;;;;4.88;1.42;;;21.00;99.90;;;;;;5095946;28;20024;-85
2022/09/15 07:20:50;;;;;;;3.75;1.23;;;21.00;99.90;;;;;;5112728;28;20028;-84
2022/09/15 07:23:17;;;;;;;5.85;1.20;;;21.10;99.90;;;;;;5112754;28;20031;-84
2022/09/15 07:25:43;;;;;;;2.88;1.00;;;21.20;99.90;;;;;;5111861;28;20057;-85
2022/09/15 07:28:14;;;;;;;6.28;1.30;;;21.20;99.90;;;;;;5112292;28;20621;-85
2022/09/15 07:30:41;;;;;;;2.05;1.02;;;21.30;99.90;;;;;;5111185;28;20041;-85
2022/09/15 07:33:08;;;;;;;6.05;1.90;;;21.30;99.90;;;;;;5112476;28;20028;-86
2022/09/15 07:35:34;;;;;;;6.72;1.20;;;21.40;99.90;;;;;;5112634;28;20519;-86
2022/09/15 07:37:59;;;;;;;2.03;0.98;;;21.40;99.90;;;;;;5112677;28;20062;-86
2022/09/15 07:40:26;;;;;;;5.63;0.90;;;21.40;99.90;;;;;;5113009;28;20024;-85
2022/09/15 07:42:52;;;;;;;2.13;0.80;;;21.40;99.90;;;;;;5112435;28;20023;-86
2022/09/15 07:45:18;;;;;;;5.30;0.95;;;21.50;99.90;;;;;;5113834;28;20073;-87
2022/09/15 07:47:43;;;;;;;2.40;1.02;;;21.60;99.90;;;;;;5115097;28;20092;-86
2022/09/15 07:50:09;;;;;;;2.67;1.13;;;21.80;99.90;;;;;;5134625;28;20043;-86
2022/09/15 07:52:35;;;;;;;5.65;1.02;;;21.90;99.90;;;;;;5134061;28;20049;-86
2022/09/15 07:55:00;;;;;;;3.15;1.00;;;22.10;99.90;;;;;;5114664;28;20491;-87
2022/09/15 07:57:26;;;;;;;7.90;1.15;;;22.30;99.90;;;;;;5112878;28;20624;-85
2022/09/15 07:59:51;;;;;;;4.47;1.50;;;22.50;99.90;;;;;;5111822;28;20476;-87
2022/09/15 08:02:19;;;;;;;5.10;1.05;;;22.70;99.90;;;;;;5112315;28;20023;-86
2022/09/15 08:04:45;;;;;;;3.60;1.13;;;22.90;99.90;;;;;;5112175;28;20475;-87
2022/09/15 08:07:11;;;;;;;6.47;1.33;;;23.10;99.90;;;;;;5104792;28;20050;-85
2022/09/15 08:09:38;;;;;;;3.22;1.30;;;23.30;99.90;;;;;;5108185;28;20040;-86
2022/09/15 08:12:05;;;;;;;4.20;1.30;;;23.90;99.90;;;;;;5091820;28;20480;-86
2022/09/15 08:14:31;;;;;;;11.65;1.05;;;24.20;99.90;;;;;;5094180;28;20020;-87
2022/09/15 08:16:59;;;;;;;11.13;1.63;;;24.30;99.90;;;;;;5113513;28;20091;-88
2022/09/15 08:19:26;;;;;;;7.18;1.50;;;24.30;99.90;;;;;;5093443;28;20265;-87
2022/09/15 08:21:52;;;;;;;6.68;1.40;;;24.50;99.90;;;;;;5091159;28;20024;-86
2022/09/15 08:24:18;;;;;;;4.68;0.95;;;24.70;99.90;;;;;;5091462;28;20385;-86
2022/09/15 08:26:45;;;;;;;4.25;1.20;;;24.80;99.90;;;;;;5093756;28;20047;-87
2022/09/15 08:29:12;;;;;;;6.75;0.98;;;25.00;99.90;;;;;;5110144;28;20040;-87
2022/09/15 08:31:38;;;;;;;7.05;2.08;;;25.60;99.90;;;;;;5110843;28;20027;-87
2022/09/15 08:34:05;;;;;;;5.55;0.90;;;26.20;99.90;;;;;;5111780;28;20142;-87
2022/09/15 08:36:32;;;;;;;3.25;0.80;;;26.60;99.90;;;;;;5111771;28;20452;-87
2022/09/15 08:38:57;;;;;;;3.55;0.70;;;26.90;99.90;;;;;;5111103;28;20035;-87
2022/09/15 08:41:26;;;;;;;3.60;0.80;;;27.00;99.90;;;;;;5110697;28;20466;-85
2022/09/15 08:43:58;;;;;;;4.60;1.02;;;27.00;99.90;;;;;;5110877;28;20039;-88
2022/09/15 08:46:32;;;;;;;4.93;1.08;;;27.20;99.90;;;;;;5111014;28;20035;-89
2022/09/15 08:49:17;;;;;;;4.57;1.02;;;27.40;99.90;;;;;;5111206;28;20051;-88
2022/09/15 08:51:46;;;;;;;5.50;1.25;;;28.00;99.90;;;;;;5110793;28;20620;-86
2022/09/15 08:54:25;;;;;;;9.23;1.33;;;28.20;99.90;;;;;;5110862;28;20023;-87
2022/09/15 08:56:51;;;;;;;3.35;0.85;;;28.10;99.90;;;;;;5090432;28;20048;-87
2022/09/15 08:59:19;;;;;;;3.00;1.08;;;28.20;99.90;;;;;;5107876;28;20030;-86
2022/09/15 09:02:04;;;;;;;5.22;0.93;;;28.10;99.90;;;;;;5107394;28;20024;-87
2022/09/15 09:04:48;;;;;;;5.38;0.95;;;28.50;99.90;;;;;;5109425;28;20036;-85
2022/09/15 09:07:40;;;;;;;4.40;1.15;;;28.90;99.90;;;;;;5110665;28;20545;-87
2022/09/15 09:10:12;;;;;;;3.55;1.35;;;29.70;99.70;;;;;;5104520;28;20105;-87
2022/09/15 09:12:49;;;;;;;3.58;1.00;;;30.10;98.80;;;;;;5091092;28;20032;-87
2022/09/15 09:15:42;;;;;;;2.95;0.90;;;30.20;98.00;;;;;;5090105;28;20035;-88
2022/09/15 09:18:14;;;;;;;3.20;0.85;;;30.40;97.20;;;;;;5091966;28;20115;-87
2022/09/15 09:20:48;;;;;;;8.10;1.00;;;30.10;97.20;;;;;;5109066;28;20020;-87
2022/09/15 09:23:18;;;;;;;7.43;0.87;;;30.60;96.00;;;;;;5107717;28;20131;-87
2022/09/15 09:25:44;;;;;;;5.90;1.00;;;30.90;95.20;;;;;;5108405;28;20041;-87
2022/09/15 09:28:26;;;;;;;6.03;0.90;;;30.90;94.70;;;;;;5109847;28;20027;-88
2022/09/15 09:30:52;;;;;;;3.25;0.90;;;31.10;93.90;;;;;;5110169;28;20404;-88
2022/09/15 09:33:27;;;;;;;5.13;0.82;;;31.00;92.10;;;;;;5110230;28;20464;-88
2022/09/15 09:35:52;;;;;;;2.20;0.60;;;31.00;91.70;;;;;;5096741;28;20142;-87
2022/09/15 09:38:31;;;;;;;1.95;0.70;;;31.40;91.50;;;;;;5089857;28;20032;-87
2022/09/15 09:40:57;;;;;;;3.55;0.60;;;31.70;88.80;;;;;;5090055;28;20107;-86
2022/09/15 09:43:23;;;;;;;2.45;0.80;;;31.80;86.00;;;;;;5098339;28;20033;-86
2022/09/15 09:45:49;;;;;;;2.45;0.85;;;32.00;84.20;;;;;;5110044;28;20551;-87
2022/09/15 09:48:19;;;;;;;5.32;0.77;;;31.90;81.60;;;;;;5111052;28;20024;-87
2022/09/15 09:50:46;;;;;;;1.65;0.50;;;32.00;81.40;;;;;;5105992;28;20039;-87
2022/09/15 09:53:27;;;;;;;1.98;0.70;;;32.50;79.50;;;;;;5102280;28;20046;-88
2022/09/15 09:56:13;;;;;;;5.35;0.73;;;32.80;77.70;;;;;;5110071;28;20048;-87
2022/09/15 09:58:39;;;;;;;4.85;0.90;;;32.90;76.10;;;;;;5109844;28;20430;-87
2022/09/15 10:01:16;;;;;;;1.77;0.55;;;32.80;74.50;;;;;;5111017;28;20032;-88
2022/09/15 10:03:44;;;;;;;1.50;0.70;;;32.90;73.60;;;;;;5109624;28;20024;-87
2022/09/15 10:06:13;;;;;;;6.07;0.75;;;33.00;73.30;;;;;;5107639;28;20027;-87
2022/09/15 10:09:02;;;;;;;1.98;0.50;;;33.20;73.20;;;;;;5109208;28;20090;-86
2022/09/15 10:11:48;;;;;;;4.45;0.90;;;33.30;71.90;;;;;;5109851;28;20065;-88
2022/09/15 10:14:38;;;;;;;4.97;0.75;;;32.80;70.90;;;;;;5109482;28;20037;-87
2022/09/15 10:17:10;;;;;;;8.55;0.60;;;32.00;72.00;;;;;;5109663;28;20209;-87
2022/09/15 10:19:54;;;;;;;4.70;0.77;;;31.20;72.90;;;;;;5109175;28;20020;-87
2022/09/15 10:22:32;;;;;;;4.20;0.60;;;30.40;74.20;;;;;;5114064;28;20024;-87
2022/09/15 10:24:59;;;;;;;7.18;1.45;;;29.70;77.20;;;;;;5114046;28;20028;-86
2022/09/15 10:27:35;;;;;;;2.00;0.65;;;29.00;79.90;;;;;;5104595;28;20024;-87
2022/09/15 10:30:13;;;;;;;2.75;0.95;;;28.50;82.10;;;;;;5093094;28;20051;-87
2022/09/15 10:32:40;;;;;;;4.50;0.70;;;28.20;83.10;;;;;;5093649;28;20115;-87
2022/09/15 10:35:15;;;;;;;1.52;0.60;;;27.80;85.20;;;;;;5099611;28;20028;-86
2022/09/15 10:38:07;;;;;;;8.73;0.63;;;27.60;86.90;;;;;;5115708;28;20073;-87
2022/09/15 10:40:44;;;;;;;2.05;0.68;;;27.50;87.50;;;;;;5113334;28;20180;-87
2022/09/15 10:43:25;;;;;;;2.00;0.68;;;27.50;87.50;;;;;;5106603;28;20024;-87
2022/09/15 10:46:18;;;;;;;4.15;0.60;;;27.40;88.00;;;;;;5093283;28;20024;-86
2022/09/15 10:48:54;;;;;;;6.15;1.13;;;27.40;89.60;;;;;;5092672;28;20126;-87
2022/09/15 10:51:33;;;;;;;3.00;0.80;;;27.50;88.70;;;;;;5101254;28;20055;-87
2022/09/15 10:54:20;;;;;;;3.05;0.60;;;27.70;88.90;;;;;;5113124;28;20096;-87
2022/09/15 10:56:51;;;;;;;2.22;0.65;;;28.00;89.20;;;;;;5113094;28;20134;-86
2022/09/15 10:59:51;;;;;;;3.75;0.63;;;28.00;88.20;;;;;;5112649;28;20055;-86
2022/09/15 11:02:47;;;;;;;3.47;0.80;;;28.10;87.70;;;;;;5112843;28;20114;-86
2022/09/15 11:05:51;;;;;;;2.57;0.53;;;28.20;87.40;;;;;;5113014;28;20024;-87
2022/09/15 11:08:30;;;;;;;3.85;0.60;;;28.20;85.30;;;;;;5113288;28;20395;-87
2022/09/15 11:11:07;;;;;;;3.83;0.80;;;28.00;87.00;;;;;;5122366;28;20028;-86
2022/09/15 11:13:57;;;;;;;2.83;0.80;;;28.00;86.50;;;;;;5110693;28;20020;-86
2022/09/15 11:16:48;;;;;;;1.67;0.60;;;28.10;86.90;;;;;;5095744;28;20024;-87
2022/09/15 11:19:29;;;;;;;3.45;0.60;;;28.00;86.50;;;;;;5109061;28;20325;-86
2022/09/15 11:22:01;;;;;;;2.88;0.60;;;27.90;85.50;;;;;;5112889;28;20400;-88
2022/09/15 11:24:51;;;;;;;2.90;0.60;;;27.90;87.50;;;;;;5111872;28;20028;-88
2022/09/15 11:27:54;;;;;;;3.28;0.57;;;27.90;86.90;;;;;;5098676;28;20046;-88
2022/09/15 11:30:22;;;;;;;1.20;0.60;;;27.90;86.90;;;;;;5099235;28;20035;-87
2022/09/15 11:32:56;;;;;;;2.58;0.68;;;27.90;87.20;;;;;;5110991;28;20039;-87
2022/09/15 11:35:33;;;;;;;1.70;0.55;;;27.90;87.50;;;;;;5102827;28;20028;-87
2022/09/15 11:38:23;;;;;;;2.22;0.50;;;27.90;87.50;;;;;;5091301;28;20016;-87
2022/09/15 11:41:13;;;;;;;5.38;0.65;;;28.00;88.20;;;;;;5072410;28;20390;-88
2022/09/15 11:43:50;;;;;;;2.35;0.60;;;28.00;86.80;;;;;;5102226;28;20050;-87
2022/09/15 11:46:24;;;;;;;4.78;0.57;;;28.00;86.60;;;;;;5111277;28;20077;-87
2022/09/15 11:49:07;;;;;;;5.20;0.60;;;28.00;86.70;;;;;;5111339;28;20040;-86
2022/09/15 11:51:45;;;;;;;3.63;0.50;;;28.10;85.10;;;;;;5111455;28;20024;-87
2022/09/15 11:54:29;;;;;;;3.35;0.80;;;28.10;85.50;;;;;;5111836;28;20071;-87
2022/09/15 11:56:55;;;;;;;1.70;0.57;;;28.10;84.50;;;;;;5113702;28;20058;-87
2022/09/15 11:59:43;;;;;;;4.90;0.75;;;28.10;85.30;;;;;;5112118;28;20027;-88
2022/09/15 12:02:15;;;;;;;1.77;0.45;;;28.10;85.50;;;;;;5113140;28;20126;-87
2022/09/15 12:04:57;;;;;;;7.65;0.60;;;28.20;84.60;;;;;;5092105;28;20115;-87
2022/09/15 12:07:29;;;;;;;3.38;0.60;;;28.20;83.80;;;;;;5090459;28;20029;-87
2022/09/15 12:10:12;;;;;;;1.50;0.57;;;28.20;82.40;;;;;;5090205;28;20036;-87
2022/09/15 12:12:41;;;;;;;2.03;0.60;;;28.20;82.90;;;;;;5109687;28;20024;-87
2022/09/15 12:15:15;;;;;;;1.95;0.40;;;28.20;81.80;;;;;;5111811;28;20035;-87
2022/09/15 12:17:51;;;;;;;1.75;0.50;;;28.00;82.20;;;;;;5107734;28;20028;-88
2022/09/15 12:20:16;;;;;;;;;;;27.90;83.70;;;;;;5111636;28;20504;-88
2022/09/15 12:22:50;;;;;;;5.43;0.50;;;27.90;84.20;;;;;;5111678;28;19904;-87
2022/09/15 12:25:23;;;;;;;2.05;0.95;;;28.00;85.30;;;;;;5111854;28;20676;-87
2022/09/15 12:28:23;;;;;;;4.38;0.55;;;28.00;85.80;;;;;;5111729;28;20115;-87
2022/09/15 12:31:10;;;;;;;5.00;0.57;;;28.10;85.70;;;;;;5109737;28;20032;-87
2022/09/15 12:33:42;;;;;;;4.32;0.68;;;28.20;84.80;;;;;;5091875;28;20488;-86
2022/09/15 12:36:30;;;;;;;5.78;0.82;;;28.20;84.20;;;;;;5090127;28;20052;-87
2022/09/15 12:38:57;;;;;;;4.65;0.70;;;28.10;84.70;;;;;;5079561;28;20036;-85
2022/09/15 12:41:23;;;;;;;3.13;0.55;;;28.00;84.40;;;;;;5088936;28;20027;-86
2022/09/15 12:43:59;;;;;;;4.40;0.60;;;27.90;84.70;;;;;;5090433;28;20027;-86
2022/09/15 12:46:25;;;;;;;3.33;0.60;;;27.90;85.50;;;;;;5090762;28;20027;-87
2022/09/15 12:48:56;;;;;;;1.55;0.85;;;27.80;85.60;;;;;;5090512;28;20028;-88
2022/09/15 12:51:26;;;;;;;5.03;0.40;;;27.80;84.60;;;;;;5090678;28;20119;-86
2022/09/15 12:53:57;;;;;;;2.70;0.40;;;27.70;84.30;;;;;;5090611;28;20039;-86
2022/09/15 12:56:29;;;;;;;2.42;0.70;;;27.50;84.40;;;;;;5089766;28;20086;-87
2022/09/15 12:59:01;;;;;;;7.88;0.50;;;27.40;85.30;;;;;;5090203;28;20507;-87
2022/09/15 13:01:26;;;;;;;2.10;0.47;;;27.20;86.00;;;;;;5090207;28;20051;-86
2022/09/15 13:03:53;;;;;;;4.50;0.70;;;27.10;86.30;;;;;;5090764;28;20472;-87
2022/09/15 13:06:29;;;;;;;6.53;0.60;;;27.00;86.80;;;;;;5091320;28;20477;-86
2022/09/15 13:09:00;;;;;;;2.00;0.60;;;26.90;86.90;;;;;;5090411;28;20561;-86